Raisin, California
Current Conditions -  °F | °C
As of 10:37 AM on Sunday 25 Jan 2015 (Local Time) from KFAT Reporting Station
Haze Haze  
Wind Chill:   Ceiling: 200
Heat Index:   Visibility: 0.5mi
Dew Point:   Wind: 3mph
Humidity: 96%   Direction: NA
Pressure: 30.21"   Gusts: NA
Location:  36.6°N, 119.9°W
Report Text: KFAT 251837Z VRB03KT 1/2SM R29R/4500VP6000FT BR OVC002 05/04 A3021 RMK AO2 SFC VIS 1 T00500044 $
Loading
Personal Weather Stations






























Interactive Weather Map New forecast layout! Learn more

10-Day Weather Forecast

Advertisements
Track Severe Weather on mobile